Time;durP1;ratioP1;P1;durP2;ratioP2;P2;SDS_P1;SDS_P2;PMS_P1;PMS_P2;Temp;Humidity;BMP_temperature;BMP_pressure;BME280_temperature;BME280_humidity;BME280_pressure;Samples;Min_cycle;Max_cycle;Signal;HPM_P1;HPM_P2
2023/07/26 00:03:58;;;;;;;4.22;2.63;;;;;;;21.48;60.99;100597.22;10257580;28;97507;-78
2023/07/26 00:09:02;;;;;;;5.45;3.20;;;;;;;21.44;61.28;100593.06;10305069;28;97713;-78
2023/07/26 00:14:06;;;;;;;5.57;2.53;;;;;;;21.49;61.43;100585.53;10337033;28;96865;-79
2023/07/26 00:19:10;;;;;;;4.22;2.85;;;;;;;21.55;60.84;100578.84;10317328;28;96956;-78
2023/07/26 00:24:13;;;;;;;4.82;2.50;;;;;;;21.10;62.29;100589.47;10297617;28;97326;-78
2023/07/26 00:29:18;;;;;;;2.95;2.42;;;;;;;20.85;62.74;100581.63;10297182;28;97493;-79
2023/07/26 00:34:21;;;;;;;4.45;2.70;;;;;;;20.84;62.98;100573.72;10297128;28;98005;-79
2023/07/26 00:39:24;;;;;;;4.47;2.47;;;;;;;20.72;63.06;100570.19;10296369;28;96582;-79
2023/07/26 00:44:29;;;;;;;4.70;2.65;;;;;;;20.79;63.30;100576.75;10297132;28;96658;-79
2023/07/26 00:49:50;;;;;;;3.70;2.63;;;;;;;20.94;62.81;100572.91;10296520;28;97257;-78
2023/07/26 00:54:55;;;;;;;5.22;3.00;;;;;;;20.74;63.40;100570.06;10296089;28;97389;-78
2023/07/26 01:00:00;;;;;;;4.55;3.17;;;;;;;20.86;63.35;100572.63;10296488;28;97660;-79
2023/07/26 01:05:04;;;;;;;3.67;2.63;;;;;;;20.69;63.75;100569.56;10294947;28;96730;-79
2023/07/26 01:10:34;;;;;;;5.65;2.70;;;;;;;20.52;64.10;100564.63;10289646;28;97456;-79
2023/07/26 01:15:42;;;;;;;4.30;3.08;;;;;;;20.19;65.14;100562.63;10295781;28;96753;-79
2023/07/26 01:20:45;;;;;;;5.30;2.75;;;;;;;20.08;65.64;100567.91;10294826;28;97311;-79
2023/07/26 01:25:51;;;;;;;3.92;2.67;;;;;;;20.26;65.20;100556.72;10294209;28;96794;-78
2023/07/26 01:31:31;;;;;;;3.30;2.45;;;;;;;20.40;64.96;100561.06;10295194;28;96711;-78
2023/07/26 01:36:36;;;;;;;3.67;2.75;;;;;;;20.41;64.52;100551.22;10294603;28;96812;-78
2023/07/26 01:41:41;;;;;;;4.45;2.45;;;;;;;20.13;65.52;100558.56;10295725;28;97873;-79
2023/07/26 01:46:44;;;;;;;4.85;2.92;;;;;;;20.37;64.95;100553.28;10294298;28;96954;-79
2023/07/26 01:51:47;;;;;;;3.88;2.67;;;;;;;20.06;65.87;100552.00;10294993;28;96703;-79
2023/07/26 01:56:52;;;;;;;3.42;2.35;;;;;;;20.17;65.60;100548.50;10293252;28;96780;-78
2023/07/26 02:01:55;;;;;;;5.03;2.60;;;;;;;20.24;65.23;100547.94;10294128;28;96800;-78
2023/07/26 02:07:00;;;;;;;;;;;;;;;20.25;66.08;100549.63;10295046;28;96733;-78
2023/07/26 02:12:06;;;;;;;4.10;2.92;;;;;;;20.22;65.04;100551.72;10294451;28;97665;-78
2023/07/26 02:17:09;;;;;;;6.43;2.97;;;;;;;19.98;65.87;100553.50;10293427;28;96874;-78
2023/07/26 02:22:12;;;;;;;4.05;2.65;;;;;;;20.01;66.40;100543.44;10294450;28;97138;-78
2023/07/26 02:27:35;;;;;;;5.85;3.20;;;;;;;19.92;66.69;100537.94;10287483;28;97764;-79
2023/07/26 02:32:38;;;;;;;4.70;3.15;;;;;;;19.96;66.41;100531.41;10294900;28;97333;-79
2023/07/26 02:37:41;;;;;;;4.18;2.85;;;;;;;19.97;66.27;100533.13;10300500;28;96684;-79
2023/07/26 02:42:46;;;;;;;4.82;2.83;;;;;;;19.79;67.45;100529.97;10301231;28;96828;-79
2023/07/26 02:47:49;;;;;;;3.63;2.80;;;;;;;19.57;68.42;100524.50;10299077;28;96789;-79
2023/07/26 02:52:53;;;;;;;4.85;3.13;;;;;;;19.51;68.23;100521.41;10288603;28;96781;-78
2023/07/26 02:57:57;;;;;;;4.68;2.63;;;;;;;19.50;67.96;100514.34;10289053;28;96639;-78
2023/07/26 03:03:18;;;;;;;4.07;2.63;;;;;;;19.36;68.68;100520.66;10334732;28;97524;-78
2023/07/26 03:08:22;;;;;;;7.45;3.30;;;;;;;19.27;68.71;100510.63;10340672;28;96777;-78
2023/07/26 03:13:26;;;;;;;3.58;2.58;;;;;;;19.30;68.33;100521.94;10338222;28;96705;-79
2023/07/26 03:18:30;;;;;;;4.45;2.85;;;;;;;19.40;67.87;100526.63;10298343;28;96818;-78
2023/07/26 03:23:34;;;;;;;6.28;2.55;;;;;;;19.41;67.59;100529.22;10300053;28;96814;-78
2023/07/26 03:28:38;;;;;;;5.43;2.90;;;;;;;19.34;68.30;100535.09;10298660;28;96680;-79
2023/07/26 03:33:42;;;;;;;6.35;3.33;;;;;;;19.36;68.12;100530.47;10327871;28;96732;-78
2023/07/26 03:38:45;;;;;;;4.40;2.75;;;;;;;19.39;68.10;100530.28;10338904;28;97006;-78
2023/07/26 03:43:50;;;;;;;4.65;2.80;;;;;;;19.39;68.42;100527.59;10339962;28;97071;-79
2023/07/26 03:48:53;;;;;;;4.10;3.10;;;;;;;19.30;68.50;100529.94;10337849;28;96799;-78
2023/07/26 03:53:56;;;;;;;4.32;2.65;;;;;;;19.31;68.99;100533.47;10320542;28;96601;-78
2023/07/26 03:59:01;;;;;;;5.32;3.38;;;;;;;19.12;69.89;100539.25;10297943;28;96747;-78
2023/07/26 04:04:05;;;;;;;4.35;3.28;;;;;;;19.03;70.39;100545.22;10297884;28;96657;-78
2023/07/26 04:09:08;;;;;;;6.25;3.42;;;;;;;19.03;70.20;100539.03;10338228;28;96657;-78
2023/07/26 04:14:30;;;;;;;6.00;3.25;;;;;;;19.03;69.90;100531.91;10334564;28;96660;-78
2023/07/26 04:19:34;;;;;;;5.20;3.08;;;;;;;18.84;70.98;100530.59;10337961;28;97576;-78
2023/07/26 04:24:42;;;;;;;5.75;2.90;;;;;;;18.73;72.06;100533.19;10309312;28;97439;-78
2023/07/26 04:29:47;;;;;;;4.63;3.35;;;;;;;18.71;71.28;100532.41;10295868;28;96595;-79
2023/07/26 04:34:50;;;;;;;5.53;3.40;;;;;;;18.92;70.52;100531.78;10296548;28;96705;-78
2023/07/26 04:39:54;;;;;;;3.97;2.83;;;;;;;19.04;70.15;100527.41;10297401;28;97823;-77
2023/07/26 04:44:58;;;;;;;5.22;3.10;;;;;;;19.05;70.13;100535.31;10296136;28;96612;-78
2023/07/26 04:50:02;;;;;;;4.20;2.65;;;;;;;19.01;70.46;100532.94;10296231;28;97210;-78
2023/07/26 04:55:06;;;;;;;4.13;2.80;;;;;;;18.64;72.31;100525.78;10296115;28;96672;-78
2023/07/26 05:00:12;;;;;;;6.05;3.17;;;;;;;18.70;71.98;100534.22;10336164;28;96756;-78
2023/07/26 05:05:15;;;;;;;4.53;3.00;;;;;;;18.61;72.59;100534.84;10337681;28;96662;-78
2023/07/26 05:10:19;;;;;;;4.55;3.13;;;;;;;18.54;72.39;100530.88;10336920;28;97770;-78
2023/07/26 05:15:24;;;;;;;5.90;3.28;;;;;;;18.53;72.66;100537.19;10335669;28;97828;-78
2023/07/26 05:20:45;;;;;;;3.40;2.80;;;;;;;18.59;72.45;100543.91;10335230;28;97118;-78
2023/07/26 05:25:48;;;;;;;4.43;2.90;;;;;;;18.73;71.52;100541.16;10311496;28;96864;-78
2023/07/26 05:30:56;;;;;;;4.22;2.78;;;;;;;18.78;71.39;100549.72;10295621;28;96955;-78
2023/07/26 05:36:00;;;;;;;5.10;3.03;;;;;;;18.65;72.44;100540.81;10295160;28;96649;-78
2023/07/26 05:41:04;;;;;;;4.57;2.70;;;;;;;18.79;71.14;100549.59;10295234;28;97094;-78
2023/07/26 05:46:10;;;;;;;4.97;2.38;;;;;;;18.72;72.08;100545.63;10294699;28;96837;-78
2023/07/26 05:51:13;;;;;;;4.22;2.53;;;;;;;18.88;71.00;100559.63;10254223;28;96688;-78
2023/07/26 05:56:16;;;;;;;5.55;3.03;;;;;;;18.84;71.72;100546.59;10292243;28;97246;-78
2023/07/26 06:01:21;;;;;;;5.10;2.72;;;;;;;18.90;72.25;100556.88;10294609;28;96713;-78
2023/07/26 06:06:25;;;;;;;4.72;2.88;;;;;;;18.82;72.94;100560.03;10320729;28;96756;-78
2023/07/26 06:11:46;;;;;;;3.00;2.50;;;;;;;18.96;72.73;100567.09;10338765;28;96596;-79
2023/07/26 06:17:00;;;;;;;3.65;2.35;;;;;;;19.42;68.89;100568.31;10341700;28;97379;-78
2023/07/26 06:22:05;;;;;;;3.25;2.00;;;;;;;19.75;66.75;100565.88;10341654;28;96865;-78
2023/07/26 06:27:08;;;;;;;3.70;2.35;;;;;;;19.99;66.04;100572.13;10306205;28;96873;-78
2023/07/26 06:32:13;;;;;;;2.97;2.08;;;;;;;20.11;65.42;100579.22;10300784;28;96809;-78
2023/07/26 06:37:16;;;;;;;2.58;1.90;;;;;;;20.27;64.38;100579.78;10301005;28;96637;-78
2023/07/26 06:42:19;;;;;;;3.10;1.77;;;;;;;20.46;63.61;100582.00;10295442;28;97419;-78
2023/07/26 06:47:24;;;;;;;3.08;1.90;;;;;;;20.64;62.77;100583.25;10298462;22;98440;-78
2023/07/26 06:52:29;;;;;;;5.78;3.05;;;;;;;20.80;62.48;100582.94;10294169;28;97542;-78
2023/07/26 06:57:32;;;;;;;3.55;1.83;;;;;;;20.96;61.64;100581.69;10295261;28;97639;-78
2023/07/26 07:02:57;;;;;;;2.45;2.10;;;;;;;21.13;60.83;100583.03;10293840;28;96719;-78
2023/07/26 07:08:00;;;;;;;3.03;1.75;;;;;;;21.28;60.82;100590.75;10294304;28;96677;-78
2023/07/26 07:13:03;;;;;;;4.15;2.28;;;;;;;21.42;60.48;100589.66;10309979;28;97011;-79
2023/07/26 07:18:08;;;;;;;2.63;1.80;;;;;;;21.53;59.26;100589.69;10335131;28;96985;-78
2023/07/26 07:23:18;;;;;;;4.28;1.95;;;;;;;21.86;58.79;100578.06;10335234;28;97582;-79
2023/07/26 07:28:21;;;;;;;3.63;1.75;;;;;;;22.07;57.68;100579.88;10334204;28;96629;-78
2023/07/26 07:33:44;;;;;;;2.95;1.70;;;;;;;22.28;57.44;100580.81;10328756;28;96667;-78
2023/07/26 07:38:47;;;;;;;2.70;1.75;;;;;;;22.38;56.82;100579.09;10335391;28;97187;-78
2023/07/26 07:43:50;;;;;;;5.00;1.70;;;;;;;22.66;56.33;100569.56;10320454;28;96783;-79
2023/07/26 07:48:55;;;;;;;2.97;1.50;;;;;;;22.74;54.90;100568.91;10324085;28;97456;-78
2023/07/26 07:53:59;;;;;;;2.38;1.52;;;;;;;22.94;54.38;100574.31;10333358;28;96712;-78
2023/07/26 07:59:02;;;;;;;3.63;1.70;;;;;;;23.07;53.95;100569.63;10333932;28;96969;-79
2023/07/26 08:04:07;;;;;;;3.37;1.77;;;;;;;23.21;53.25;100568.41;10333012;28;96728;-78
2023/07/26 08:09:27;;;;;;;2.88;1.42;;;;;;;23.46;52.35;100562.59;10327073;28;97182;-78
2023/07/26 08:14:30;;;;;;;3.58;1.70;;;;;;;23.56;51.68;100556.31;10333478;28;96634;-78
2023/07/26 08:19:35;;;;;;;2.05;1.38;;;;;;;23.78;50.38;100551.72;10332252;28;96731;-78
2023/07/26 08:24:38;;;;;;;2.70;1.55;;;;;;;24.03;50.26;100561.97;10333271;28;97655;-78
2023/07/26 08:29:42;;;;;;;1.80;1.15;;;;;;;24.05;49.16;100552.75;10333639;28;96912;-79
2023/07/26 08:34:47;;;;;;;3.80;1.40;;;;;;;24.30;48.38;100540.66;10332027;28;96913;-78
2023/07/26 08:39:50;;;;;;;2.10;1.17;;;;;;;24.42;47.79;100526.06;10331799;28;96650;-79
2023/07/26 08:44:54;;;;;;;2.00;1.20;;;;;;;24.50;47.70;100537.81;10308846;28;96693;-78
2023/07/26 08:49:59;;;;;;;2.33;1.20;;;;;;;24.68;47.12;100529.88;10290851;28;96708;-78
2023/07/26 08:55:03;;;;;;;3.28;1.40;;;;;;;24.81;47.01;100533.13;10283200;28;97809;-78
2023/07/26 09:00:08;;;;;;;1.77;1.42;;;;;;;25.12;46.91;100531.13;10290911;28;97069;-78
2023/07/26 09:05:13;;;;;;;4.97;1.20;;;;;;;25.20;46.51;100531.22;10290900;28;96727;-78
2023/07/26 09:10:16;;;;;;;2.70;1.30;;;;;;;25.40;45.96;100530.13;10291012;28;97478;-79
2023/07/26 09:15:20;;;;;;;2.33;1.52;;;;;;;25.38;45.46;100527.59;10290440;28;96718;-79
2023/07/26 09:20:26;;;;;;;;;;;;;;;25.67;45.28;100524.78;10291132;28;97043;-79
2023/07/26 09:25:32;;;;;;;2.00;0.90;;;;;;;25.62;44.53;100519.00;10290424;28;96625;-78
2023/07/26 09:30:36;;;;;;;1.27;1.00;;;;;;;25.71;44.09;100515.44;10290695;28;97105;-78
2023/07/26 09:35:45;;;;;;;1.38;0.90;;;;;;;25.93;43.76;100509.63;10288982;28;96641;-79
2023/07/26 09:40:48;;;;;;;2.58;1.45;;;;;;;26.09;43.77;100506.25;10289725;28;96605;-79
2023/07/26 09:46:00;;;;;;;2.53;1.07;;;;;;;26.17;43.40;100498.22;10288454;28;97212;-79
2023/07/26 09:51:24;;;;;;;1.67;0.80;;;;;;;26.40;43.38;100492.22;10283326;28;97697;-78
2023/07/26 09:56:34;;;;;;;1.58;1.00;;;;;;;26.71;43.16;100493.50;10289392;28;96801;-79
2023/07/26 10:01:42;;;;;;;1.50;1.00;;;;;;;26.69;42.56;100497.38;10289671;28;97817;-78
2023/07/26 10:06:50;;;;;;;1.60;0.80;;;;;;;26.91;42.16;100494.13;10288744;28;96803;-78
2023/07/26 10:11:55;;;;;;;1.30;0.80;;;;;;;27.14;41.41;100489.94;10289852;28;96891;-78
2023/07/26 10:16:59;;;;;;;2.45;1.20;;;;;;;27.09;41.27;100486.00;10288717;28;96776;-78
2023/07/26 10:22:06;;;;;;;3.20;1.38;;;;;;;27.19;41.47;100479.50;10289485;28;97673;-78
2023/07/26 10:27:10;;;;;;;2.95;0.80;;;;;;;27.33;41.06;100473.47;10287459;28;96671;-78
2023/07/26 10:32:14;;;;;;;1.83;1.13;;;;;;;27.38;40.89;100475.69;10288782;28;96652;-78
2023/07/26 10:37:20;;;;;;;1.13;0.88;;;;;;;27.58;41.22;100472.56;10288751;28;96717;-78
2023/07/26 10:42:25;;;;;;;2.25;1.15;;;;;;;27.69;40.74;100450.66;10288439;28;97586;-78
2023/07/26 10:47:29;;;;;;;2.28;1.02;;;;;;;27.81;40.48;100448.47;10287499;28;96840;-78
2023/07/26 10:52:37;;;;;;;1.98;0.98;;;;;;;28.01;39.81;100445.28;10288972;28;97445;-78
2023/07/26 10:57:48;;;;;;;1.60;1.05;;;;;;;28.03;39.94;100437.88;10293292;28;96794;-78
2023/07/26 11:03:00;;;;;;;2.38;1.00;;;;;;;28.15;39.72;100443.81;10295636;28;97145;-78
2023/07/26 11:08:06;;;;;;;1.73;1.00;;;;;;;28.53;39.41;100436.91;10294594;28;97655;-78
2023/07/26 11:13:12;;;;;;;1.90;1.00;;;;;;;28.66;39.31;100429.09;10294913;28;96660;-78
2023/07/26 11:18:16;;;;;;;1.00;0.88;;;;;;;28.86;39.03;100431.22;10292971;28;96668;-78
2023/07/26 11:23:39;;;;;;;2.33;1.20;;;;;;;29.09;38.68;100409.69;10288988;28;96686;-78
2023/07/26 11:28:43;;;;;;;1.30;0.90;;;;;;;29.19;38.30;100411.16;10294695;28;97678;-77
2023/07/26 11:34:18;;;;;;;3.70;1.15;;;;;;;29.04;37.82;100403.94;10287677;28;97846;-78
2023/07/26 11:39:24;;;;;;;1.73;1.20;;;;;;;29.35;37.42;100393.16;10293368;28;97952;-78
2023/07/26 11:44:28;;;;;;;2.00;1.33;;;;;;;29.57;37.77;100398.63;10293671;28;97222;-78
2023/07/26 11:49:33;;;;;;;1.95;1.08;;;;;;;29.62;37.14;100385.41;10292682;28;96710;-78
2023/07/26 11:54:37;;;;;;;1.88;1.10;;;;;;;29.92;36.88;100373.66;10275182;28;96770;-78
2023/07/26 11:59:41;;;;;;;3.25;1.48;;;;;;;29.85;36.51;100367.25;10252274;28;96680;-78
2023/07/26 12:05:04;;;;;;;;;;;;;;;30.00;36.53;100351.88;10328971;28;97776;-78
2023/07/26 12:10:31;;;;;;;1.67;1.10;;;;;;;30.16;35.85;100356.38;10326307;28;96828;-78
2023/07/26 12:15:54;;;;;;;1.48;0.90;;;;;;;30.29;35.33;100353.84;10333448;28;96654;-78
2023/07/26 12:20:58;;;;;;;3.22;1.40;;;;;;;30.33;35.76;100352.47;10332529;28;96797;-78
2023/07/26 12:26:21;;;;;;;2.28;1.02;;;;;;;30.50;35.11;100342.25;10331462;28;97600;-79
2023/07/26 12:31:26;;;;;;;1.55;1.20;;;;;;;30.96;35.61;100330.19;10332941;28;96725;-78
2023/07/26 12:36:31;;;;;;;2.15;1.27;;;;;;;31.07;34.58;100322.41;10331924;28;96714;-78
2023/07/26 12:41:53;;;;;;;2.08;1.13;;;;;;;31.39;34.11;100312.97;10326257;28;96579;-78
2023/07/26 12:46:58;;;;;;;2.08;1.15;;;;;;;31.59;33.40;100303.16;10293083;28;97522;-78
2023/07/26 12:52:21;;;;;;;3.85;1.30;;;;;;;31.61;34.36;100292.06;10292392;28;97666;-78
2023/07/26 12:57:26;;;;;;;2.40;1.10;;;;;;;32.02;34.15;100276.75;10291092;28;96953;-79
2023/07/26 13:02:29;;;;;;;2.83;1.10;;;;;;;32.13;33.60;100259.88;10290162;28;96718;-78
2023/07/26 13:07:33;;;;;;;1.75;1.00;;;;;;;31.98;33.49;100253.72;10290241;28;96885;-78
2023/07/26 13:12:37;;;;;;;2.30;1.33;;;;;;;32.10;32.44;100239.31;10291044;28;97488;-78
2023/07/26 13:17:41;;;;;;;2.13;1.20;;;;;;;31.90;32.91;100237.50;10289892;28;96662;-78
2023/07/26 13:22:45;;;;;;;1.58;1.00;;;;;;;32.55;32.03;100228.94;10291093;28;97430;-79
2023/07/26 13:27:49;;;;;;;2.35;1.15;;;;;;;32.49;31.53;100222.41;10290688;28;96920;-78
2023/07/26 13:32:53;;;;;;;2.03;1.40;;;;;;;32.89;31.59;100212.56;10289995;28;98038;-77
2023/07/26 13:37:57;;;;;;;1.85;1.15;;;;;;;32.58;31.93;100201.28;10290488;28;97506;-78
2023/07/26 13:43:02;;;;;;;2.45;1.20;;;;;;;32.63;31.61;100190.59;10296721;28;97452;-78
2023/07/26 13:48:05;;;;;;;1.92;1.10;;;;;;;33.11;31.14;100189.53;10330360;28;98235;-78
2023/07/26 13:53:09;;;;;;;1.80;1.05;;;;;;;33.48;30.46;100186.25;10329870;28;96876;-79
2023/07/26 13:58:13;;;;;;;2.95;1.50;;;;;;;33.38;30.50;100177.63;10330172;28;96685;-79
2023/07/26 14:03:17;;;;;;;1.85;1.08;;;;;;;33.20;30.74;100174.66;10329364;28;97214;-78
2023/07/26 14:08:38;;;;;;;2.22;1.15;;;;;;;33.43;30.03;100172.41;10323502;28;96631;-79
2023/07/26 14:13:42;;;;;;;1.98;1.30;;;;;;;33.41;30.49;100152.66;10330107;28;97202;-78
2023/07/26 14:18:45;;;;;;;3.90;1.63;;;;;;;33.45;29.56;100151.22;10328834;28;96986;-78
2023/07/26 14:24:07;;;;;;;1.98;1.10;;;;;;;33.59;29.00;100141.13;10323720;28;97064;-79
2023/07/26 14:29:11;;;;;;;2.40;1.27;;;;;;;33.68;29.51;100142.59;10331316;28;96701;-78
2023/07/26 14:34:15;;;;;;;2.38;1.25;;;;;;;33.58;29.06;100139.41;10335948;28;97201;-79
2023/07/26 14:39:19;;;;;;;2.00;1.08;;;;;;;33.57;28.80;100132.31;10336497;28;96683;-78
2023/07/26 14:44:23;;;;;;;2.00;1.33;;;;;;;34.10;29.13;100131.16;10316482;28;96616;-79
2023/07/26 14:49:27;;;;;;;2.33;1.20;;;;;;;34.49;28.51;100123.69;10294560;28;96878;-79
2023/07/26 14:54:31;;;;;;;1.70;1.08;;;;;;;34.64;28.21;100112.47;10299471;28;96931;-79
2023/07/26 14:59:54;;;;;;;2.33;1.35;;;;;;;34.60;28.09;100111.22;10254022;28;96887;-79
2023/07/26 15:04:57;;;;;;;2.03;1.35;;;;;;;34.83;27.27;100095.09;10254215;28;96679;-80
2023/07/26 15:10:02;;;;;;;2.60;1.58;;;;;;;35.16;27.36;100086.69;10278348;28;97496;-80
2023/07/26 15:15:08;;;;;;;1.90;1.25;;;;;;;35.31;26.85;100084.44;10294387;28;97344;-79
2023/07/26 15:20:12;;;;;;;2.10;1.40;;;;;;;35.36;27.42;100076.38;10294694;28;96780;-80
2023/07/26 15:25:33;;;;;;;2.83;1.55;;;;;;;35.39;27.17;100074.03;10289833;28;96757;-79
2023/07/26 15:30:38;;;;;;;2.50;1.35;;;;;;;35.45;26.98;100075.06;10293733;28;97569;-79
2023/07/26 15:35:59;;;;;;;2.63;1.38;;;;;;;35.38;27.08;100069.63;10286444;28;96682;-79
2023/07/26 15:41:03;;;;;;;2.40;1.50;;;;;;;35.32;27.02;100061.50;10292015;28;96747;-79
2023/07/26 15:46:19;;;;;;;2.42;1.50;;;;;;;35.37;27.34;100062.47;10286232;28;96818;-79
2023/07/26 15:51:25;;;;;;;3.00;1.80;;;;;;;35.28;27.07;100063.00;10286832;28;96598;-79
2023/07/26 15:56:28;;;;;;;2.75;1.55;;;;;;;35.07;27.36;100050.56;10292465;28;96887;-79
2023/07/26 16:01:33;;;;;;;2.72;1.63;;;;;;;34.36;28.47;100049.09;10320516;28;96564;-79
2023/07/26 16:06:41;;;;;;;3.22;1.80;;;;;;;33.96;30.00;100048.44;10333750;28;96671;-79
2023/07/26 16:11:47;;;;;;;2.90;1.70;;;;;;;33.70;30.69;100048.50;10330014;28;97620;-79
2023/07/26 16:17:10;;;;;;;2.40;1.60;;;;;;;33.76;30.76;100053.09;10316198;28;97286;-79
2023/07/26 16:22:15;;;;;;;3.33;1.50;;;;;;;33.63;31.93;100050.41;10292319;28;96606;-79
2023/07/26 16:27:20;;;;;;;3.65;2.05;;;;;;;33.32;32.05;100045.59;10290995;28;96947;-79
2023/07/26 16:32:25;;;;;;;2.58;1.88;;;;;;;33.07;33.25;100043.75;10292310;28;96651;-79
2023/07/26 16:37:29;;;;;;;3.95;1.95;;;;;;;32.95;33.40;100051.69;10291415;28;96832;-79
2023/07/26 16:42:32;;;;;;;4.40;1.90;;;;;;;32.72;33.61;100053.09;10291726;28;96776;-79
2023/07/26 16:47:37;;;;;;;3.05;1.70;;;;;;;32.78;33.76;100044.94;10291064;28;96565;-79
2023/07/26 16:52:40;;;;;;;5.95;2.05;;;;;;;32.63;34.35;100047.03;10319755;28;96734;-78
2023/07/26 16:57:43;;;;;;;4.38;2.20;;;;;;;32.54;33.99;100045.53;10331996;28;96576;-79
2023/07/26 17:03:06;;;;;;;2.72;1.90;;;;;;;32.53;34.26;100053.91;10330334;28;96780;-79
2023/07/26 17:08:09;;;;;;;3.53;1.90;;;;;;;32.62;34.23;100047.22;10330942;28;96835;-78
2023/07/26 17:13:12;;;;;;;4.72;2.10;;;;;;;32.53;34.33;100049.31;10331726;28;96757;-78
2023/07/26 17:18:17;;;;;;;3.38;2.17;;;;;;;32.47;34.51;100055.56;10330816;28;97005;-78
2023/07/26 17:23:38;;;;;;;5.68;2.40;;;;;;;32.47;34.39;100047.41;10330758;28;97675;-78
2023/07/26 17:28:42;;;;;;;3.17;2.38;;;;;;;32.36;34.58;100053.44;10331468;28;97900;-79
2023/07/26 17:33:46;;;;;;;2.83;1.95;;;;;;;32.35;34.74;100052.63;10331028;28;96623;-79
2023/07/26 17:39:09;;;;;;;3.90;2.00;;;;;;;32.32;35.13;100061.19;10331259;28;96763;-78
2023/07/26 17:44:12;;;;;;;2.42;1.58;;;;;;;32.28;35.07;100068.06;10297071;28;96621;-79
2023/07/26 17:49:17;;;;;;;2.47;1.52;;;;;;;32.11;35.63;100077.63;10289046;28;97145;-79
2023/07/26 17:54:20;;;;;;;2.70;1.73;;;;;;;31.78;35.50;100073.03;10278926;28;96848;-79
2023/07/26 17:59:23;;;;;;;3.80;2.08;;;;;;;31.63;36.19;100077.75;10268383;28;96684;-79
2023/07/26 18:04:46;;;;;;;6.10;1.77;;;;;;;31.47;35.85;100080.78;10284776;28;97087;-79
2023/07/26 18:09:49;;;;;;;6.47;2.08;;;;;;;31.29;36.51;100087.56;10288308;28;96683;-78
2023/07/26 18:14:53;;;;;;;3.35;1.80;;;;;;;31.13;36.95;100087.81;10289997;28;96973;-78
2023/07/26 18:19:57;;;;;;;2.25;1.40;;;;;;;31.06;37.64;100086.91;10288958;28;97629;-79
2023/07/26 18:25:18;;;;;;;4.07;2.00;;;;;;;30.96;37.73;100099.16;10287408;28;96728;-78
2023/07/26 18:30:22;;;;;;;2.97;1.65;;;;;;;30.83;38.57;100099.03;10288573;28;97772;-78
2023/07/26 18:35:26;;;;;;;3.20;1.70;;;;;;;30.72;38.08;100096.81;10289280;28;96570;-78
2023/07/26 18:40:47;;;;;;;3.15;1.98;;;;;;;30.52;38.64;100104.75;10282676;28;97609;-79
2023/07/26 18:45:51;;;;;;;;;;;;;;;30.32;39.21;100103.66;10289273;28;96726;-78
2023/07/26 18:50:56;;;;;;;2.40;1.30;;;;;;;30.26;39.39;100109.84;10311040;28;97309;-78
2023/07/26 18:55:59;;;;;;;2.60;1.70;;;;;;;30.13;39.81;100110.53;10328904;28;96832;-78
2023/07/26 19:01:02;;;;;;;3.78;1.48;;;;;;;30.02;40.49;100110.13;10327755;28;97739;-78
2023/07/26 19:06:07;;;;;;;;;;;;;;;29.80;41.16;100111.91;10328393;28;96618;-78
2023/07/26 19:11:28;;;;;;;3.03;1.48;;;;;;;29.71;40.79;100114.91;10324896;28;96749;-78
2023/07/26 19:16:31;;;;;;;2.67;1.42;;;;;;;29.63;40.85;100117.69;10325121;22;97276;-79
2023/07/26 19:21:53;;;;;;;3.17;1.73;;;;;;;29.44;41.54;100116.34;10253740;28;99052;-78
2023/07/26 19:26:57;;;;;;;1.85;1.20;;;;;;;29.40;41.38;100116.91;10254513;28;97519;-78
2023/07/26 19:32:00;;;;;;;2.72;1.25;;;;;;;29.34;41.52;100115.75;10253731;28;96740;-78
2023/07/26 19:37:22;;;;;;;2.30;1.40;;;;;;;29.18;41.82;100119.47;10249140;28;97830;-78
2023/07/26 19:42:26;;;;;;;2.10;1.40;;;;;;;29.09;42.11;100125.13;10280035;28;96710;-78
2023/07/26 19:47:29;;;;;;;2.92;1.35;;;;;;;29.01;42.38;100130.59;10292835;28;96700;-78
2023/07/26 19:52:51;;;;;;;2.88;1.70;;;;;;;28.87;42.82;100132.22;10291652;28;96800;-78
2023/07/26 19:57:55;;;;;;;3.00;1.55;;;;;;;28.74;43.23;100140.06;10292099;28;96621;-78
2023/07/26 20:02:58;;;;;;;2.00;1.42;;;;;;;28.63;43.56;100150.47;10293176;28;97021;-78
2023/07/26 20:08:20;;;;;;;3.85;1.67;;;;;;;28.47;43.83;100148.72;10286464;28;96756;-78
2023/07/26 20:13:42;;;;;;;1.65;1.13;;;;;;;28.38;44.31;100152.47;10283756;28;97864;-78
2023/07/26 20:18:46;;;;;;;3.25;1.80;;;;;;;28.22;44.67;100151.69;10281056;28;96906;-78
2023/07/26 20:23:51;;;;;;;2.78;1.50;;;;;;;28.07;45.41;100165.94;10251644;28;96799;-78
2023/07/26 20:28:54;;;;;;;2.63;1.33;;;;;;;27.95;45.88;100159.22;10251630;28;96769;-78
2023/07/26 20:33:57;;;;;;;3.05;1.40;;;;;;;27.82;46.07;100167.00;10252096;28;97818;-78
2023/07/26 20:39:03;;;;;;;2.45;1.40;;;;;;;27.86;45.73;100179.19;10251334;28;96686;-78
2023/07/26 20:44:06;;;;;;;2.80;1.20;;;;;;;27.77;46.17;100176.69;10250326;28;96714;-78
2023/07/26 20:49:09;;;;;;;3.35;1.58;;;;;;;27.64;47.20;100184.44;10251514;28;96791;-78
2023/07/26 20:54:14;;;;;;;2.28;1.30;;;;;;;27.53;47.36;100191.03;10249049;28;96673;-78
2023/07/26 20:59:17;;;;;;;2.90;1.35;;;;;;;27.43;47.61;100189.50;10250897;28;97639;-78
2023/07/26 21:04:20;;;;;;;2.38;1.58;;;;;;;27.31;47.68;100197.13;10252308;28;96998;-77
2023/07/26 21:09:25;;;;;;;3.33;1.38;;;;;;;27.20;48.23;100208.25;10290850;28;97462;-78
2023/07/26 21:14:28;;;;;;;2.17;1.33;;;;;;;27.14;48.59;100192.72;10271802;28;97207;-78
2023/07/26 21:19:50;;;;;;;2.13;1.38;;;;;;;27.09;48.92;100205.88;10249729;28;97593;-78
2023/07/26 21:24:54;;;;;;;2.33;1.42;;;;;;;26.96;48.80;100208.19;10279802;28;96894;-78
2023/07/26 21:29:58;;;;;;;2.60;1.30;;;;;;;26.84;49.15;100202.25;10290153;28;96623;-78
2023/07/26 21:35:18;;;;;;;1.67;1.20;;;;;;;26.81;49.48;100208.00;10282915;28;96923;-78
2023/07/26 21:40:24;;;;;;;3.88;1.30;;;;;;;26.84;49.38;100213.06;10289026;28;97575;-78
2023/07/26 21:45:27;;;;;;;2.65;1.50;;;;;;;26.58;50.64;100224.94;10289959;28;97646;-78
2023/07/26 21:50:30;;;;;;;2.07;0.97;;;;;;;26.52;50.34;100218.38;10289564;28;96782;-78
2023/07/26 21:55:35;;;;;;;2.63;1.40;;;;;;;26.40;51.28;100224.22;10285579;28;97582;-78
2023/07/26 22:00:42;;;;;;;5.50;1.50;;;;;;;26.40;51.07;100226.91;10248403;28;96750;-78
2023/07/26 22:05:48;;;;;;;2.88;1.48;;;;;;;26.20;51.80;100223.56;10248768;28;96749;-78
2023/07/26 22:10:57;;;;;;;1.92;1.23;;;;;;;26.16;52.10;100240.25;10249203;28;96624;-78
2023/07/26 22:16:00;;;;;;;1.92;1.30;;;;;;;26.00;52.65;100227.50;10279595;28;96858;-78
2023/07/26 22:21:23;;;;;;;1.98;1.30;;;;;;;26.08;52.37;100240.19;10286097;28;97737;-78
2023/07/26 22:26:27;;;;;;;3.40;1.55;;;;;;;26.06;52.69;100236.78;10287967;28;97085;-78
2023/07/26 22:31:31;;;;;;;3.10;1.40;;;;;;;25.99;52.67;100242.00;10269297;28;96716;-78
2023/07/26 22:36:52;;;;;;;3.40;1.45;;;;;;;25.84;53.20;100239.03;10243473;28;96576;-78
2023/07/26 22:41:57;;;;;;;3.72;1.40;;;;;;;26.04;52.79;100238.84;10247996;28;96906;-78
2023/07/26 22:47:00;;;;;;;3.50;1.48;;;;;;;26.00;52.97;100242.84;10248115;28;97122;-78
2023/07/26 22:52:04;;;;;;;2.60;1.37;;;;;;;25.87;53.41;100238.72;10251329;28;97574;-78
2023/07/26 22:57:44;;;;;;;3.47;1.40;;;;;;;25.75;54.15;100233.75;10254574;28;97062;-78
2023/07/26 23:03:07;;;;;;;3.45;1.35;;;;;;;25.59;54.22;100230.88;10251810;28;96712;-78
2023/07/26 23:08:28;;;;;;;3.38;1.42;;;;;;;25.57;54.19;100231.03;10212661;28;97798;-78
2023/07/26 23:13:33;;;;;;;2.83;1.58;;;;;;;25.43;54.83;100238.84;10213495;28;96686;-78
2023/07/26 23:18:38;;;;;;;3.38;1.58;;;;;;;25.34;55.00;100234.38;10212069;28;96709;-78
2023/07/26 23:23:41;;;;;;;2.95;1.50;;;;;;;25.12;55.58;100229.47;10243543;28;97832;-78
2023/07/26 23:28:45;;;;;;;2.63;1.40;;;;;;;24.91;56.04;100229.72;10253697;28;96948;-78
2023/07/26 23:34:07;;;;;;;2.00;1.00;;;;;;;24.82;56.33;100222.56;10247361;28;97051;-78
2023/07/26 23:39:11;;;;;;;3.35;1.40;;;;;;;24.74;56.53;100223.31;10254059;28;96913;-78